createdAt,value
2018-06-29T00:04:12.533Z,19.00
2018-06-29T00:08:47.010Z,18.90
2018-06-29T00:13:21.563Z,18.90
2018-06-29T00:17:55.774Z,18.80
2018-06-29T00:22:30.349Z,18.70
2018-06-29T00:27:05.063Z,18.70
2018-06-29T00:31:39.305Z,18.70
2018-06-29T00:36:14.662Z,18.60
2018-06-29T00:40:49.424Z,18.60
2018-06-29T00:49:58.635Z,18.70
2018-06-29T00:54:33.133Z,18.70
2018-06-29T00:59:07.923Z,18.80
2018-06-29T01:03:42.264Z,18.70
2018-06-29T01:08:16.799Z,18.60
2018-06-29T01:12:51.155Z,18.70
2018-06-29T01:17:25.621Z,18.70
2018-06-29T01:22:00.047Z,18.70
2018-06-29T01:26:34.378Z,18.70
2018-06-29T01:31:09.475Z,18.70
2018-06-29T01:35:43.937Z,18.70
2018-06-29T01:40:18.425Z,18.80
2018-06-29T01:44:52.983Z,18.80
2018-06-29T01:54:01.515Z,18.70
2018-06-29T01:58:35.984Z,18.70
2018-06-29T02:03:10.561Z,18.70
2018-06-29T02:07:45.225Z,18.70
2018-06-29T02:12:19.621Z,18.70
2018-06-29T02:16:54.896Z,18.60
2018-06-29T02:21:29.358Z,18.60
2018-06-29T02:30:37.679Z,18.70
2018-06-29T02:35:12.037Z,18.70
2018-06-29T02:39:46.463Z,18.70
2018-06-29T02:44:21.211Z,18.70
2018-06-29T02:48:55.780Z,18.70
2018-06-29T02:53:30.305Z,18.70
2018-06-29T02:58:04.873Z,18.70
2018-06-29T03:02:39.434Z,18.70
2018-06-29T03:07:13.858Z,18.70
2018-06-29T03:11:48.209Z,18.70
2018-06-29T03:16:22.532Z,18.70
2018-06-29T03:20:56.997Z,18.80
2018-06-29T03:25:32.426Z,18.80
2018-06-29T03:30:06.957Z,18.80
2018-06-29T03:34:41.440Z,18.80
2018-06-29T03:39:15.878Z,18.70
2018-06-29T03:43:50.485Z,18.70
2018-06-29T03:48:24.878Z,18.60
2018-06-29T03:52:59.761Z,18.60
2018-06-29T03:57:34.027Z,18.60
2018-06-29T04:02:08.448Z,18.50
2018-06-29T04:06:42.885Z,18.50
2018-06-29T04:11:17.277Z,18.50
2018-06-29T04:15:52.041Z,18.50
2018-06-29T04:20:26.561Z,18.60
2018-06-29T04:25:02.782Z,18.60
2018-06-29T04:29:36.988Z,18.70
2018-06-29T04:34:11.338Z,18.70
2018-06-29T04:38:45.964Z,18.80
2018-06-29T04:43:20.201Z,18.90
2018-06-29T04:47:54.714Z,19.10
2018-06-29T04:57:03.302Z,19.50
2018-06-29T05:01:37.942Z,19.70
2018-06-29T05:06:12.280Z,19.80
2018-06-29T05:10:46.830Z,20.00
2018-06-29T05:15:21.306Z,20.30
2018-06-29T05:19:56.100Z,20.60
2018-06-29T05:24:30.626Z,20.70
2018-06-29T05:29:05.177Z,20.90
2018-06-29T05:33:39.414Z,21.00
2018-06-29T05:38:14.513Z,21.10
2018-06-29T05:42:49.089Z,21.20
2018-06-29T05:47:23.293Z,21.10
2018-06-29T05:51:59.232Z,21.30
2018-06-29T05:56:33.713Z,21.40
2018-06-29T06:01:10.586Z,21.60
2018-06-29T06:05:44.862Z,21.80
2018-06-29T06:10:19.406Z,22.00
2018-06-29T06:14:53.860Z,22.20
2018-06-29T06:19:39.270Z,22.30
2018-06-29T06:24:14.218Z,22.50
2018-06-29T06:28:48.698Z,22.60
2018-06-29T06:33:23.236Z,22.80
2018-06-29T06:37:58.213Z,23.00
2018-06-29T06:42:32.725Z,23.20
2018-06-29T06:47:07.346Z,23.40
2018-06-29T06:51:41.818Z,23.50
2018-06-29T06:56:16.227Z,23.70
2018-06-29T07:00:50.594Z,23.70
2018-06-29T07:05:24.933Z,23.90
2018-06-29T07:09:59.338Z,24.10
2018-06-29T07:14:33.730Z,24.40
2018-06-29T07:19:08.418Z,24.40
2018-06-29T07:23:42.881Z,24.40
2018-06-29T07:28:17.414Z,24.90
2018-06-29T07:32:51.737Z,25.10
2018-06-29T07:37:26.319Z,25.60
2018-06-29T07:42:00.689Z,26.00
2018-06-29T07:46:35.145Z,26.00
2018-06-29T07:51:09.560Z,26.10
2018-06-29T07:55:43.829Z,26.20
2018-06-29T08:00:18.330Z,26.30
2018-06-29T08:04:53.421Z,26.40
2018-06-29T08:09:27.866Z,26.40
2018-06-29T08:14:02.190Z,26.80
2018-06-29T08:18:37.106Z,27.30
2018-06-29T08:23:11.773Z,27.00
2018-06-29T08:27:46.785Z,27.00
2018-06-29T08:32:21.049Z,27.40
2018-06-29T08:36:55.625Z,28.10
2018-06-29T08:41:30.657Z,28.40
2018-06-29T08:46:05.394Z,28.80
2018-06-29T08:50:39.795Z,28.80
2018-06-29T08:55:14.374Z,29.60
2018-06-29T08:59:48.762Z,29.80
2018-06-29T09:04:23.090Z,29.90
2018-06-29T09:08:57.508Z,30.40
2018-06-29T09:13:31.897Z,30.90
2018-06-29T09:18:06.143Z,31.10
2018-06-29T09:22:40.637Z,30.70
2018-06-29T09:27:14.947Z,29.90
2018-06-29T09:31:49.517Z,30.80
2018-06-29T09:36:23.759Z,31.00
2018-06-29T09:40:58.387Z,31.60
2018-06-29T09:45:33.205Z,32.60
2018-06-29T09:50:07.621Z,33.20
2018-06-29T09:59:15.925Z,33.70
2018-06-29T10:03:50.212Z,33.10
2018-06-29T10:08:24.676Z,33.40
2018-06-29T10:12:59.013Z,34.50
2018-06-29T10:17:33.545Z,34.00
2018-06-29T10:22:07.887Z,33.40
2018-06-29T10:26:42.298Z,32.80
2018-06-29T10:31:16.826Z,32.70
2018-06-29T10:35:51.190Z,33.00
2018-06-29T10:40:25.370Z,32.90
2018-06-29T10:44:59.623Z,33.70
2018-06-29T10:49:34.050Z,35.00
2018-06-29T10:54:08.610Z,34.80
2018-06-29T10:58:43.027Z,32.50
2018-06-29T11:03:17.377Z,32.10
2018-06-29T11:07:51.961Z,32.90
2018-06-29T11:12:26.489Z,33.40
2018-06-29T11:17:00.831Z,33.50
2018-06-29T11:21:35.113Z,34.50
2018-06-29T11:26:09.382Z,34.30
2018-06-29T11:30:43.710Z,33.20
2018-06-29T11:35:18.824Z,33.90
2018-06-29T11:39:53.432Z,34.80
2018-06-29T11:44:27.938Z,34.50
2018-06-29T11:49:02.302Z,34.50
2018-06-29T11:53:37.426Z,34.70
2018-06-29T11:58:12.669Z,32.90
2018-06-29T12:02:47.178Z,33.20
2018-06-29T12:11:55.847Z,33.80
2018-06-29T12:21:04.316Z,32.00
2018-06-29T12:25:38.651Z,31.90
2018-06-29T12:30:13.519Z,32.50
2018-06-29T12:34:48.278Z,32.10
2018-06-29T12:39:23.227Z,33.00
2018-06-29T12:43:57.592Z,33.80
2018-06-29T12:48:32.051Z,32.80
2018-06-29T12:53:07.177Z,31.80
2018-06-29T12:57:41.742Z,30.90
2018-06-29T13:02:16.178Z,31.30
2018-06-29T13:06:50.594Z,32.30
2018-06-29T13:11:25.354Z,33.50
2018-06-29T13:16:02.225Z,33.10
2018-06-29T13:20:36.812Z,32.70
2018-06-29T13:25:11.527Z,32.60
2018-06-29T13:29:46.597Z,32.00
2018-06-29T13:34:21.037Z,32.40
2018-06-29T13:38:55.442Z,32.80
2018-06-29T13:43:29.913Z,32.40
2018-06-29T13:48:04.485Z,32.00
2018-06-29T13:52:38.733Z,31.70
2018-06-29T13:57:13.814Z,31.60
2018-06-29T14:01:49.985Z,31.50
2018-06-29T14:06:25.654Z,31.90
2018-06-29T14:11:00.425Z,32.00
2018-06-29T14:15:34.952Z,31.20
2018-06-29T14:20:09.567Z,30.60
2018-06-29T14:24:43.774Z,30.80
2018-06-29T14:29:18.175Z,30.80
2018-06-29T14:33:57.542Z,30.60
2018-06-29T14:38:32.286Z,30.80
2018-06-29T14:43:06.782Z,30.90
2018-06-29T14:47:41.301Z,30.50
2018-06-29T14:52:15.940Z,30.40
2018-06-29T14:56:50.497Z,30.70
2018-06-29T15:01:24.749Z,31.00
2018-06-29T15:05:59.357Z,30.60
2018-06-29T15:10:33.746Z,30.50
2018-06-29T15:15:10.195Z,30.40
2018-06-29T15:19:45.943Z,30.50
2018-06-29T15:24:21.005Z,30.60
2018-06-29T15:28:56.158Z,30.30
2018-06-29T15:33:30.634Z,29.90
2018-06-29T15:38:05.221Z,29.50
2018-06-29T15:42:39.924Z,29.50
2018-06-29T15:47:16.099Z,29.50
2018-06-29T15:51:50.523Z,29.80
2018-06-29T15:56:25.071Z,30.20
2018-06-29T16:00:59.756Z,30.20
2018-06-29T16:05:34.241Z,29.70
2018-06-29T16:10:08.878Z,29.50
2018-06-29T16:14:43.423Z,29.50
2018-06-29T16:19:17.917Z,29.70
2018-06-29T16:23:52.196Z,29.90
2018-06-29T16:28:27.513Z,30.00
2018-06-29T16:33:02.701Z,30.10
2018-06-29T16:37:37.309Z,30.20
2018-06-29T16:42:11.734Z,29.90
2018-06-29T16:46:47.136Z,29.50
2018-06-29T16:51:22.263Z,29.40
2018-06-29T16:55:57.043Z,29.30
2018-06-29T17:00:31.418Z,29.50
2018-06-29T17:05:05.973Z,29.50
2018-06-29T17:09:40.586Z,29.50
2018-06-29T17:14:16.341Z,29.30
2018-06-29T17:18:50.871Z,29.10
2018-06-29T17:23:25.265Z,29.10
2018-06-29T17:27:59.865Z,29.20
2018-06-29T17:32:34.425Z,29.00
2018-06-29T17:37:08.931Z,28.90
2018-06-29T17:41:43.485Z,29.00
2018-06-29T17:46:17.733Z,29.00
2018-06-29T17:50:52.094Z,28.90
2018-06-29T17:55:26.874Z,28.80
2018-06-29T18:00:01.066Z,28.70
2018-06-29T18:04:35.398Z,28.70
2018-06-29T18:09:12.269Z,28.70
2018-06-29T18:13:46.673Z,28.60
2018-06-29T18:18:21.193Z,28.50
2018-06-29T18:22:55.581Z,28.40
2018-06-29T18:27:30.171Z,28.30
2018-06-29T18:32:04.739Z,28.20
2018-06-29T18:36:45.793Z,28.10
2018-06-29T18:45:54.787Z,27.90
2018-06-29T18:50:29.182Z,27.70
2018-06-29T18:59:37.899Z,27.40
2018-06-29T19:04:12.414Z,27.20
2018-06-29T19:08:48.223Z,26.90
2018-06-29T19:13:22.812Z,26.70
2018-06-29T19:17:57.194Z,26.40
2018-06-29T19:22:31.789Z,26.30
2018-06-29T19:27:06.347Z,26.00
2018-06-29T19:31:40.685Z,25.70
2018-06-29T19:36:16.480Z,25.40
2018-06-29T19:40:50.898Z,25.10
2018-06-29T19:45:25.198Z,24.90
2018-06-29T19:50:00.380Z,24.70
2018-06-29T19:54:34.738Z,24.40
2018-06-29T19:59:09.202Z,24.20
2018-06-29T20:03:43.495Z,24.00
2018-06-29T20:08:19.459Z,23.80
2018-06-29T20:12:54.505Z,23.60
2018-06-29T20:17:31.710Z,23.40
2018-06-29T20:22:06.303Z,23.20
2018-06-29T20:26:42.272Z,23.10
2018-06-29T20:31:17.000Z,22.80
2018-06-29T20:35:52.463Z,22.60
2018-06-29T20:40:27.333Z,22.50
2018-06-29T20:45:04.388Z,22.30
2018-06-29T20:49:40.730Z,22.20
2018-06-29T20:54:15.566Z,22.10
2018-06-29T20:58:50.098Z,22.00
2018-06-29T21:03:24.538Z,21.80
2018-06-29T21:07:58.875Z,21.70
2018-06-29T21:12:33.569Z,21.60
2018-06-29T21:17:08.011Z,21.50
2018-06-29T21:21:42.865Z,21.30
2018-06-29T21:26:17.240Z,21.20
2018-06-29T21:30:51.557Z,21.10
2018-06-29T21:35:26.807Z,21.00
2018-06-29T21:40:01.325Z,20.90
2018-06-29T21:44:35.621Z,20.80
2018-06-29T21:49:11.348Z,20.70
2018-06-29T21:53:45.698Z,20.60
2018-06-29T21:58:20.349Z,20.50
2018-06-29T22:02:54.773Z,20.30
2018-06-29T22:07:29.621Z,20.20
2018-06-29T22:12:04.823Z,20.10
2018-06-29T22:16:39.159Z,19.90
2018-06-29T22:21:13.787Z,19.80
2018-06-29T22:25:48.401Z,19.80
2018-06-29T22:30:22.621Z,19.80
2018-06-29T22:34:57.038Z,19.70
2018-06-29T22:39:31.468Z,19.70
2018-06-29T22:44:05.950Z,19.60
2018-06-29T22:48:40.489Z,19.50
2018-06-29T22:53:15.245Z,19.40
2018-06-29T22:57:49.646Z,19.40
2018-06-29T23:02:24.233Z,19.30
2018-06-29T23:06:58.729Z,19.20
2018-06-29T23:11:33.029Z,19.10
2018-06-29T23:16:07.698Z,19.00
2018-06-29T23:20:42.526Z,18.90
2018-06-29T23:25:17.077Z,18.70
2018-06-29T23:29:51.491Z,18.70
2018-06-29T23:34:26.093Z,18.60
2018-06-29T23:39:00.469Z,18.50
2018-06-29T23:43:35.159Z,18.50
2018-06-29T23:48:10.168Z,18.40
2018-06-29T23:52:44.521Z,18.20
2018-06-29T23:57:19.642Z,18.20
